sensor_id;sensor_type;location;lat;lon;timestamp;P1;durP1;ratioP1;P2;durP2;ratioP2
21741;SDS011;11033;47.490;11.116;2023-04-25T00:02:25;3.42;;;2.22;;
21741;SDS011;11033;47.490;11.116;2023-04-25T00:04:50;2.00;;;1.90;;
21741;SDS011;11033;47.490;11.116;2023-04-25T00:07:16;2.35;;;2.15;;
21741;SDS011;11033;47.490;11.116;2023-04-25T00:09:42;2.22;;;1.80;;
21741;SDS011;11033;47.490;11.116;2023-04-25T00:12:07;1.92;;;1.67;;
21741;SDS011;11033;47.490;11.116;2023-04-25T00:14:32;3.10;;;2.35;;
21741;SDS011;11033;47.490;11.116;2023-04-25T00:17:01;3.05;;;1.98;;
21741;SDS011;11033;47.490;11.116;2023-04-25T00:19:27;2.38;;;2.03;;
21741;SDS011;11033;47.490;11.116;2023-04-25T00:21:54;2.10;;;1.90;;
21741;SDS011;11033;47.490;11.116;2023-04-25T00:24:19;2.25;;;2.05;;
21741;SDS011;11033;47.490;11.116;2023-04-25T00:26:45;2.33;;;2.13;;
21741;SDS011;11033;47.490;11.116;2023-04-25T00:29:10;2.58;;;2.22;;
21741;SDS011;11033;47.490;11.116;2023-04-25T00:31:35;2.42;;;2.15;;
21741;SDS011;11033;47.490;11.116;2023-04-25T00:34:01;4.07;;;2.28;;
21741;SDS011;11033;47.490;11.116;2023-04-25T00:36:26;4.15;;;2.38;;
21741;SDS011;11033;47.490;11.116;2023-04-25T00:38:52;3.03;;;2.20;;
21741;SDS011;11033;47.490;11.116;2023-04-25T00:41:19;4.50;;;2.75;;
21741;SDS011;11033;47.490;11.116;2023-04-25T00:43:45;2.50;;;2.30;;
21741;SDS011;11033;47.490;11.116;2023-04-25T00:46:12;2.83;;;2.60;;
21741;SDS011;11033;47.490;11.116;2023-04-25T00:48:38;4.25;;;2.35;;
21741;SDS011;11033;47.490;11.116;2023-04-25T00:51:03;4.40;;;3.13;;
21741;SDS011;11033;47.490;11.116;2023-04-25T00:53:28;2.42;;;2.22;;
21741;SDS011;11033;47.490;11.116;2023-04-25T00:55:56;4.90;;;2.78;;
21741;SDS011;11033;47.490;11.116;2023-04-25T00:58:22;4.65;;;2.90;;
21741;SDS011;11033;47.490;11.116;2023-04-25T01:00:48;6.88;;;3.15;;
21741;SDS011;11033;47.490;11.116;2023-04-25T01:03:15;3.85;;;3.17;;
21741;SDS011;11033;47.490;11.116;2023-04-25T01:05:42;4.93;;;3.55;;
21741;SDS011;11033;47.490;11.116;2023-04-25T01:08:08;4.70;;;3.08;;
21741;SDS011;11033;47.490;11.116;2023-04-25T01:10:35;3.85;;;3.15;;
21741;SDS011;11033;47.490;11.116;2023-04-25T01:13:00;5.78;;;3.00;;
21741;SDS011;11033;47.490;11.116;2023-04-25T01:15:26;4.40;;;3.45;;
21741;SDS011;11033;47.490;11.116;2023-04-25T01:17:51;5.00;;;2.97;;
21741;SDS011;11033;47.490;11.116;2023-04-25T01:20:18;4.70;;;3.30;;
21741;SDS011;11033;47.490;11.116;2023-04-25T01:22:46;3.72;;;3.15;;
21741;SDS011;11033;47.490;11.116;2023-04-25T01:25:11;7.97;;;3.60;;
21741;SDS011;11033;47.490;11.116;2023-04-25T01:27:37;3.22;;;2.78;;
21741;SDS011;11033;47.490;11.116;2023-04-25T01:30:03;4.18;;;3.72;;
21741;SDS011;11033;47.490;11.116;2023-04-25T01:32:30;4.80;;;3.63;;
21741;SDS011;11033;47.490;11.116;2023-04-25T01:35:03;4.80;;;3.28;;
21741;SDS011;11033;47.490;11.116;2023-04-25T01:37:35;4.72;;;3.30;;
21741;SDS011;11033;47.490;11.116;2023-04-25T01:40:01;4.57;;;3.47;;
21741;SDS011;11033;47.490;11.116;2023-04-25T01:42:27;7.43;;;3.85;;
21741;SDS011;11033;47.490;11.116;2023-04-25T01:44:52;3.47;;;3.13;;
21741;SDS011;11033;47.490;11.116;2023-04-25T01:47:18;3.97;;;3.55;;
21741;SDS011;11033;47.490;11.116;2023-04-25T01:49:43;4.88;;;3.75;;
21741;SDS011;11033;47.490;11.116;2023-04-25T01:52:09;7.53;;;3.60;;
21741;SDS011;11033;47.490;11.116;2023-04-25T01:54:34;4.80;;;3.50;;
21741;SDS011;11033;47.490;11.116;2023-04-25T01:56:59;5.97;;;3.92;;
21741;SDS011;11033;47.490;11.116;2023-04-25T01:59:25;7.10;;;4.07;;
21741;SDS011;11033;47.490;11.116;2023-04-25T02:01:50;5.05;;;3.42;;
21741;SDS011;11033;47.490;11.116;2023-04-25T02:04:16;4.40;;;3.70;;
21741;SDS011;11033;47.490;11.116;2023-04-25T02:06:41;6.13;;;3.70;;
21741;SDS011;11033;47.490;11.116;2023-04-25T02:09:06;5.07;;;4.03;;
21741;SDS011;11033;47.490;11.116;2023-04-25T02:11:31;6.88;;;4.10;;
21741;SDS011;11033;47.490;11.116;2023-04-25T02:13:57;5.88;;;4.25;;
21741;SDS011;11033;47.490;11.116;2023-04-25T02:16:22;5.97;;;3.70;;
21741;SDS011;11033;47.490;11.116;2023-04-25T02:18:48;4.22;;;3.72;;
21741;SDS011;11033;47.490;11.116;2023-04-25T02:21:13;5.87;;;3.80;;
21741;SDS011;11033;47.490;11.116;2023-04-25T02:23:38;5.30;;;4.13;;
21741;SDS011;11033;47.490;11.116;2023-04-25T02:26:04;8.20;;;4.70;;
21741;SDS011;11033;47.490;11.116;2023-04-25T02:28:29;6.05;;;3.78;;
21741;SDS011;11033;47.490;11.116;2023-04-25T02:30:55;5.10;;;4.18;;
21741;SDS011;11033;47.490;11.116;2023-04-25T02:33:20;6.27;;;3.47;;
21741;SDS011;11033;47.490;11.116;2023-04-25T02:35:46;8.82;;;3.90;;
21741;SDS011;11033;47.490;11.116;2023-04-25T02:38:11;4.55;;;3.72;;
21741;SDS011;11033;47.490;11.116;2023-04-25T02:40:36;4.78;;;3.78;;
21741;SDS011;11033;47.490;11.116;2023-04-25T02:43:02;3.88;;;3.47;;
21741;SDS011;11033;47.490;11.116;2023-04-25T02:45:27;4.37;;;3.23;;
21741;SDS011;11033;47.490;11.116;2023-04-25T02:47:52;6.43;;;3.80;;
21741;SDS011;11033;47.490;11.116;2023-04-25T02:50:17;4.10;;;2.93;;
21741;SDS011;11033;47.490;11.116;2023-04-25T02:52:43;8.68;;;3.83;;
21741;SDS011;11033;47.490;11.116;2023-04-25T02:55:08;4.95;;;3.65;;
21741;SDS011;11033;47.490;11.116;2023-04-25T02:57:34;8.35;;;4.20;;
21741;SDS011;11033;47.490;11.116;2023-04-25T02:59:59;6.03;;;4.45;;
21741;SDS011;11033;47.490;11.116;2023-04-25T03:02:24;7.22;;;4.03;;
21741;SDS011;11033;47.490;11.116;2023-04-25T03:04:50;5.63;;;3.50;;
21741;SDS011;11033;47.490;11.116;2023-04-25T03:07:15;5.93;;;3.57;;
21741;SDS011;11033;47.490;11.116;2023-04-25T03:09:40;6.43;;;3.40;;
21741;SDS011;11033;47.490;11.116;2023-04-25T03:12:05;4.28;;;3.67;;
21741;SDS011;11033;47.490;11.116;2023-04-25T03:14:31;4.93;;;3.63;;
21741;SDS011;11033;47.490;11.116;2023-04-25T03:16:56;4.20;;;3.80;;
21741;SDS011;11033;47.490;11.116;2023-04-25T03:19:21;5.80;;;3.95;;
21741;SDS011;11033;47.490;11.116;2023-04-25T03:21:47;4.40;;;3.53;;
21741;SDS011;11033;47.490;11.116;2023-04-25T03:24:12;5.38;;;3.70;;
21741;SDS011;11033;47.490;11.116;2023-04-25T03:26:37;5.53;;;3.90;;
21741;SDS011;11033;47.490;11.116;2023-04-25T03:29:03;4.13;;;3.73;;
21741;SDS011;11033;47.490;11.116;2023-04-25T03:31:28;6.37;;;5.00;;
21741;SDS011;11033;47.490;11.116;2023-04-25T03:33:53;4.55;;;3.65;;
21741;SDS011;11033;47.490;11.116;2023-04-25T03:36:19;4.68;;;3.58;;
21741;SDS011;11033;47.490;11.116;2023-04-25T03:38:44;4.30;;;3.67;;
21741;SDS011;11033;47.490;11.116;2023-04-25T03:41:09;6.33;;;4.20;;
21741;SDS011;11033;47.490;11.116;2023-04-25T03:43:34;5.97;;;3.65;;
21741;SDS011;11033;47.490;11.116;2023-04-25T03:46:00;6.32;;;4.00;;
21741;SDS011;11033;47.490;11.116;2023-04-25T03:48:26;7.43;;;4.10;;
21741;SDS011;11033;47.490;11.116;2023-04-25T03:50:52;4.90;;;3.70;;
21741;SDS011;11033;47.490;11.116;2023-04-25T03:53:18;5.03;;;3.90;;
21741;SDS011;11033;47.490;11.116;2023-04-25T03:55:43;6.25;;;3.92;;
21741;SDS011;11033;47.490;11.116;2023-04-25T03:58:09;4.90;;;3.47;;
21741;SDS011;11033;47.490;11.116;2023-04-25T04:00:34;7.47;;;4.13;;
21741;SDS011;11033;47.490;11.116;2023-04-25T04:03:00;4.85;;;3.40;;
21741;SDS011;11033;47.490;11.116;2023-04-25T04:05:25;5.35;;;4.15;;
21741;SDS011;11033;47.490;11.116;2023-04-25T04:07:52;4.63;;;3.50;;
21741;SDS011;11033;47.490;11.116;2023-04-25T04:10:17;5.32;;;4.13;;
21741;SDS011;11033;47.490;11.116;2023-04-25T04:12:43;8.63;;;5.00;;
21741;SDS011;11033;47.490;11.116;2023-04-25T04:15:09;7.68;;;4.15;;
21741;SDS011;11033;47.490;11.116;2023-04-25T04:17:34;6.28;;;3.35;;
21741;SDS011;11033;47.490;11.116;2023-04-25T04:20:00;7.22;;;3.70;;
21741;SDS011;11033;47.490;11.116;2023-04-25T04:22:25;5.47;;;3.67;;
21741;SDS011;11033;47.490;11.116;2023-04-25T04:24:50;6.32;;;4.55;;
21741;SDS011;11033;47.490;11.116;2023-04-25T04:27:19;4.53;;;3.67;;
21741;SDS011;11033;47.490;11.116;2023-04-25T04:29:44;7.15;;;3.60;;
21741;SDS011;11033;47.490;11.116;2023-04-25T04:32:11;5.32;;;4.50;;
21741;SDS011;11033;47.490;11.116;2023-04-25T04:34:37;5.22;;;4.18;;
21741;SDS011;11033;47.490;11.116;2023-04-25T04:37:02;5.07;;;4.07;;
21741;SDS011;11033;47.490;11.116;2023-04-25T04:39:27;7.10;;;4.18;;
21741;SDS011;11033;47.490;11.116;2023-04-25T04:41:53;7.05;;;4.40;;
21741;SDS011;11033;47.490;11.116;2023-04-25T04:44:18;5.90;;;3.60;;
21741;SDS011;11033;47.490;11.116;2023-04-25T04:46:43;7.47;;;4.00;;
21741;SDS011;11033;47.490;11.116;2023-04-25T04:49:09;6.38;;;4.72;;
21741;SDS011;11033;47.490;11.116;2023-04-25T04:51:35;6.13;;;4.15;;
21741;SDS011;11033;47.490;11.116;2023-04-25T04:54:01;4.35;;;3.95;;
21741;SDS011;11033;47.490;11.116;2023-04-25T04:56:28;6.32;;;3.97;;
21741;SDS011;11033;47.490;11.116;2023-04-25T04:58:55;6.28;;;4.10;;
21741;SDS011;11033;47.490;11.116;2023-04-25T05:01:21;5.82;;;4.13;;
21741;SDS011;11033;47.490;11.116;2023-04-25T05:03:47;8.70;;;4.18;;
21741;SDS011;11033;47.490;11.116;2023-04-25T05:06:12;8.27;;;4.47;;
21741;SDS011;11033;47.490;11.116;2023-04-25T05:08:37;4.45;;;3.70;;
21741;SDS011;11033;47.490;11.116;2023-04-25T05:11:02;8.18;;;3.47;;
21741;SDS011;11033;47.490;11.116;2023-04-25T05:13:28;6.63;;;4.28;;
21741;SDS011;11033;47.490;11.116;2023-04-25T05:15:53;5.50;;;3.85;;
21741;SDS011;11033;47.490;11.116;2023-04-25T05:18:18;5.07;;;4.03;;
21741;SDS011;11033;47.490;11.116;2023-04-25T05:20:44;7.50;;;4.10;;
21741;SDS011;11033;47.490;11.116;2023-04-25T05:23:09;7.22;;;4.07;;
21741;SDS011;11033;47.490;11.116;2023-04-25T05:25:35;5.57;;;4.18;;
21741;SDS011;11033;47.490;11.116;2023-04-25T05:28:00;5.25;;;3.92;;
21741;SDS011;11033;47.490;11.116;2023-04-25T05:30:25;4.70;;;3.77;;
21741;SDS011;11033;47.490;11.116;2023-04-25T05:32:50;5.97;;;3.83;;
21741;SDS011;11033;47.490;11.116;2023-04-25T05:35:16;4.43;;;3.80;;
21741;SDS011;11033;47.490;11.116;2023-04-25T05:37:41;6.72;;;4.15;;
21741;SDS011;11033;47.490;11.116;2023-04-25T05:40:07;6.20;;;4.07;;
21741;SDS011;11033;47.490;11.116;2023-04-25T05:42:33;6.32;;;4.55;;
21741;SDS011;11033;47.490;11.116;2023-04-25T05:44:59;11.93;;;5.65;;
21741;SDS011;11033;47.490;11.116;2023-04-25T05:47:24;7.40;;;5.53;;
21741;SDS011;11033;47.490;11.116;2023-04-25T05:49:49;11.63;;;6.07;;
21741;SDS011;11033;47.490;11.116;2023-04-25T05:52:15;9.55;;;5.60;;
21741;SDS011;11033;47.490;11.116;2023-04-25T05:54:40;8.15;;;5.10;;
21741;SDS011;11033;47.490;11.116;2023-04-25T05:57:06;6.10;;;4.00;;
21741;SDS011;11033;47.490;11.116;2023-04-25T05:59:31;10.23;;;4.07;;
21741;SDS011;11033;47.490;11.116;2023-04-25T06:01:57;7.22;;;5.13;;
21741;SDS011;11033;47.490;11.116;2023-04-25T06:04:22;9.00;;;5.55;;
21741;SDS011;11033;47.490;11.116;2023-04-25T06:06:47;6.15;;;5.55;;
21741;SDS011;11033;47.490;11.116;2023-04-25T06:09:13;7.43;;;5.35;;
21741;SDS011;11033;47.490;11.116;2023-04-25T06:11:38;6.80;;;5.73;;
21741;SDS011;11033;47.490;11.116;2023-04-25T06:14:03;7.65;;;5.03;;
21741;SDS011;11033;47.490;11.116;2023-04-25T06:16:28;6.93;;;5.43;;
21741;SDS011;11033;47.490;11.116;2023-04-25T06:18:54;7.77;;;5.20;;
21741;SDS011;11033;47.490;11.116;2023-04-25T06:21:19;7.53;;;5.20;;
21741;SDS011;11033;47.490;11.116;2023-04-25T06:23:44;6.85;;;5.35;;
21741;SDS011;11033;47.490;11.116;2023-04-25T06:26:10;6.35;;;4.43;;
21741;SDS011;11033;47.490;11.116;2023-04-25T06:28:35;6.47;;;5.27;;
21741;SDS011;11033;47.490;11.116;2023-04-25T06:31:00;6.22;;;5.13;;
21741;SDS011;11033;47.490;11.116;2023-04-25T06:33:26;7.28;;;4.90;;
21741;SDS011;11033;47.490;11.116;2023-04-25T06:35:51;7.13;;;5.38;;
21741;SDS011;11033;47.490;11.116;2023-04-25T06:38:17;6.60;;;4.85;;
21741;SDS011;11033;47.490;11.116;2023-04-25T06:40:42;7.68;;;4.55;;
21741;SDS011;11033;47.490;11.116;2023-04-25T06:43:07;6.33;;;5.57;;
21741;SDS011;11033;47.490;11.116;2023-04-25T06:45:33;5.60;;;5.00;;
21741;SDS011;11033;47.490;11.116;2023-04-25T06:47:58;5.50;;;4.78;;
21741;SDS011;11033;47.490;11.116;2023-04-25T06:50:23;6.87;;;4.57;;
21741;SDS011;11033;47.490;11.116;2023-04-25T06:52:48;6.13;;;3.80;;
21741;SDS011;11033;47.490;11.116;2023-04-25T06:55:14;9.17;;;4.37;;
21741;SDS011;11033;47.490;11.116;2023-04-25T06:57:39;7.63;;;3.60;;
21741;SDS011;11033;47.490;11.116;2023-04-25T07:00:06;6.40;;;4.33;;
21741;SDS011;11033;47.490;11.116;2023-04-25T07:02:34;4.63;;;3.88;;
21741;SDS011;11033;47.490;11.116;2023-04-25T07:04:59;5.78;;;3.88;;
21741;SDS011;11033;47.490;11.116;2023-04-25T07:07:25;5.53;;;3.63;;
21741;SDS011;11033;47.490;11.116;2023-04-25T07:09:50;6.25;;;3.80;;
21741;SDS011;11033;47.490;11.116;2023-04-25T07:12:16;5.82;;;3.67;;
21741;SDS011;11033;47.490;11.116;2023-04-25T07:14:41;4.27;;;3.00;;
21741;SDS011;11033;47.490;11.116;2023-04-25T07:17:06;7.60;;;3.92;;
21741;SDS011;11033;47.490;11.116;2023-04-25T07:19:32;7.10;;;4.20;;
21741;SDS011;11033;47.490;11.116;2023-04-25T07:21:58;5.05;;;3.72;;
21741;SDS011;11033;47.490;11.116;2023-04-25T07:24:23;5.93;;;3.40;;
21741;SDS011;11033;47.490;11.116;2023-04-25T07:26:48;4.95;;;3.83;;
21741;SDS011;11033;47.490;11.116;2023-04-25T07:29:14;3.92;;;3.08;;
21741;SDS011;11033;47.490;11.116;2023-04-25T07:31:39;4.38;;;3.80;;
21741;SDS011;11033;47.490;11.116;2023-04-25T07:34:05;4.82;;;4.32;;
21741;SDS011;11033;47.490;11.116;2023-04-25T07:36:30;6.03;;;4.60;;
21741;SDS011;11033;47.490;11.116;2023-04-25T07:38:56;3.92;;;3.50;;
21741;SDS011;11033;47.490;11.116;2023-04-25T07:41:21;5.15;;;3.00;;
21741;SDS011;11033;47.490;11.116;2023-04-25T07:43:47;3.72;;;3.15;;
21741;SDS011;11033;47.490;11.116;2023-04-25T07:46:12;3.37;;;3.10;;
21741;SDS011;11033;47.490;11.116;2023-04-25T07:48:37;5.67;;;3.43;;
21741;SDS011;11033;47.490;11.116;2023-04-25T07:51:02;2.70;;;2.50;;
21741;SDS011;11033;47.490;11.116;2023-04-25T07:53:30;4.32;;;3.08;;
21741;SDS011;11033;47.490;11.116;2023-04-25T07:55:55;1.95;;;1.77;;
21741;SDS011;11033;47.490;11.116;2023-04-25T07:58:20;3.60;;;2.40;;
21741;SDS011;11033;47.490;11.116;2023-04-25T08:00:47;4.45;;;2.50;;
21741;SDS011;11033;47.490;11.116;2023-04-25T08:03:12;6.78;;;2.58;;
21741;SDS011;11033;47.490;11.116;2023-04-25T08:05:38;3.88;;;2.40;;
21741;SDS011;11033;47.490;11.116;2023-04-25T08:08:03;7.13;;;3.20;;
21741;SDS011;11033;47.490;11.116;2023-04-25T08:10:31;3.22;;;2.45;;
21741;SDS011;11033;47.490;11.116;2023-04-25T08:12:56;3.45;;;2.13;;
21741;SDS011;11033;47.490;11.116;2023-04-25T08:15:21;2.60;;;2.40;;
21741;SDS011;11033;47.490;11.116;2023-04-25T08:17:47;5.85;;;2.47;;
21741;SDS011;11033;47.490;11.116;2023-04-25T08:20:12;6.65;;;2.70;;
21741;SDS011;11033;47.490;11.116;2023-04-25T08:22:37;2.83;;;2.30;;
21741;SDS011;11033;47.490;11.116;2023-04-25T08:25:03;5.33;;;2.53;;
21741;SDS011;11033;47.490;11.116;2023-04-25T08:27:28;4.18;;;2.63;;
21741;SDS011;11033;47.490;11.116;2023-04-25T08:29:54;2.85;;;2.30;;
21741;SDS011;11033;47.490;11.116;2023-04-25T08:32:20;4.57;;;2.60;;
21741;SDS011;11033;47.490;11.116;2023-04-25T08:34:46;2.17;;;1.80;;
21741;SDS011;11033;47.490;11.116;2023-04-25T08:37:12;3.33;;;1.95;;
21741;SDS011;11033;47.490;11.116;2023-04-25T08:39:37;3.92;;;2.42;;
21741;SDS011;11033;47.490;11.116;2023-04-25T08:42:04;4.43;;;2.47;;
21741;SDS011;11033;47.490;11.116;2023-04-25T08:44:35;4.80;;;2.33;;
21741;SDS011;11033;47.490;11.116;2023-04-25T08:47:03;6.00;;;2.40;;
21741;SDS011;11033;47.490;11.116;2023-04-25T08:49:32;2.85;;;2.40;;
21741;SDS011;11033;47.490;11.116;2023-04-25T08:52:03;3.40;;;2.28;;
21741;SDS011;11033;47.490;11.116;2023-04-25T08:54:30;4.30;;;2.17;;
21741;SDS011;11033;47.490;11.116;2023-04-25T08:56:56;2.63;;;2.42;;
21741;SDS011;11033;47.490;11.116;2023-04-25T08:59:26;7.38;;;2.50;;
21741;SDS011;11033;47.490;11.116;2023-04-25T09:01:52;3.45;;;2.00;;
21741;SDS011;11033;47.490;11.116;2023-04-25T09:04:17;2.55;;;1.88;;
21741;SDS011;11033;47.490;11.116;2023-04-25T09:06:45;2.55;;;1.92;;
21741;SDS011;11033;47.490;11.116;2023-04-25T09:09:10;4.25;;;2.20;;
21741;SDS011;11033;47.490;11.116;2023-04-25T09:11:36;4.72;;;1.70;;
21741;SDS011;11033;47.490;11.116;2023-04-25T09:19:23;4.30;;;1.85;;
21741;SDS011;11033;47.490;11.116;2023-04-25T09:22:04;4.82;;;2.42;;
21741;SDS011;11033;47.490;11.116;2023-04-25T09:24:37;4.75;;;2.35;;
21741;SDS011;11033;47.490;11.116;2023-04-25T09:27:17;2.95;;;2.10;;
21741;SDS011;11033;47.490;11.116;2023-04-25T09:29:45;2.88;;;2.20;;
21741;SDS011;11033;47.490;11.116;2023-04-25T09:32:21;3.28;;;2.25;;
21741;SDS011;11033;47.490;11.116;2023-04-25T09:34:55;3.10;;;2.33;;
21741;SDS011;11033;47.490;11.116;2023-04-25T09:37:28;2.38;;;1.90;;
21741;SDS011;11033;47.490;11.116;2023-04-25T09:39:55;3.28;;;1.85;;
21741;SDS011;11033;47.490;11.116;2023-04-25T09:42:22;2.50;;;1.85;;
21741;SDS011;11033;47.490;11.116;2023-04-25T09:44:49;5.90;;;1.90;;
21741;SDS011;11033;47.490;11.116;2023-04-25T09:47:17;3.08;;;2.10;;
21741;SDS011;11033;47.490;11.116;2023-04-25T09:49:43;2.17;;;1.83;;
21741;SDS011;11033;47.490;11.116;2023-04-25T09:52:24;4.57;;;2.00;;
21741;SDS011;11033;47.490;11.116;2023-04-25T09:54:50;3.22;;;2.40;;
21741;SDS011;11033;47.490;11.116;2023-04-25T09:57:17;3.80;;;2.28;;
21741;SDS011;11033;47.490;11.116;2023-04-25T10:02:20;3.70;;;1.90;;
21741;SDS011;11033;47.490;11.116;2023-04-25T10:07:18;3.42;;;1.50;;
21741;SDS011;11033;47.490;11.116;2023-04-25T10:09:45;3.08;;;1.80;;
21741;SDS011;11033;47.490;11.116;2023-04-25T10:12:14;3.23;;;2.33;;
21741;SDS011;11033;47.490;11.116;2023-04-25T10:14:41;3.70;;;2.22;;
21741;SDS011;11033;47.490;11.116;2023-04-25T10:17:08;5.45;;;2.35;;
21741;SDS011;11033;47.490;11.116;2023-04-25T10:19:35;2.20;;;2.00;;
21741;SDS011;11033;47.490;11.116;2023-04-25T10:22:14;2.22;;;1.88;;
21741;SDS011;11033;47.490;11.116;2023-04-25T10:24:45;3.45;;;2.08;;
21741;SDS011;11033;47.490;11.116;2023-04-25T10:27:11;2.75;;;2.00;;
21741;SDS011;11033;47.490;11.116;2023-04-25T10:29:37;3.25;;;2.50;;
21741;SDS011;11033;47.490;11.116;2023-04-25T10:32:02;3.37;;;2.00;;
21741;SDS011;11033;47.490;11.116;2023-04-25T10:34:40;2.83;;;1.92;;
21741;SDS011;11033;47.490;11.116;2023-04-25T10:37:08;2.60;;;1.95;;
21741;SDS011;11033;47.490;11.116;2023-04-25T10:39:36;5.30;;;2.20;;
21741;SDS011;11033;47.490;11.116;2023-04-25T10:42:04;2.30;;;1.75;;
21741;SDS011;11033;47.490;11.116;2023-04-25T10:44:30;2.92;;;1.55;;
21741;SDS011;11033;47.490;11.116;2023-04-25T10:46:56;2.17;;;1.92;;
21741;SDS011;11033;47.490;11.116;2023-04-25T10:49:43;2.13;;;1.70;;
21741;SDS011;11033;47.490;11.116;2023-04-25T10:54:54;4.97;;;3.80;;
21741;SDS011;11033;47.490;11.116;2023-04-25T10:57:37;2.93;;;2.10;;
21741;SDS011;11033;47.490;11.116;2023-04-25T11:00:18;2.60;;;1.80;;
21741;SDS011;11033;47.490;11.116;2023-04-25T11:05:23;1.55;;;1.45;;
21741;SDS011;11033;47.490;11.116;2023-04-25T11:08:00;3.83;;;1.90;;
21741;SDS011;11033;47.490;11.116;2023-04-25T11:10:26;3.45;;;1.67;;
21741;SDS011;11033;47.490;11.116;2023-04-25T11:12:54;2.65;;;1.30;;
21741;SDS011;11033;47.490;11.116;2023-04-25T11:15:19;2.00;;;1.88;;
21741;SDS011;11033;47.490;11.116;2023-04-25T11:17:44;3.45;;;1.48;;
21741;SDS011;11033;47.490;11.116;2023-04-25T11:20:11;2.20;;;1.42;;
21741;SDS011;11033;47.490;11.116;2023-04-25T11:22:39;2.38;;;1.70;;
21741;SDS011;11033;47.490;11.116;2023-04-25T11:25:09;1.77;;;1.50;;
21741;SDS011;11033;47.490;11.116;2023-04-25T11:27:54;1.95;;;1.77;;
21741;SDS011;11033;47.490;11.116;2023-04-25T11:30:22;1.70;;;1.52;;
21741;SDS011;11033;47.490;11.116;2023-04-25T11:32:48;1.65;;;1.42;;
21741;SDS011;11033;47.490;11.116;2023-04-25T11:35:14;2.35;;;1.63;;
21741;SDS011;11033;47.490;11.116;2023-04-25T11:37:40;2.97;;;1.88;;
21741;SDS011;11033;47.490;11.116;2023-04-25T11:40:07;1.90;;;1.70;;
21741;SDS011;11033;47.490;11.116;2023-04-25T11:42:34;2.20;;;1.90;;
21741;SDS011;11033;47.490;11.116;2023-04-25T11:45:01;2.13;;;2.00;;
21741;SDS011;11033;47.490;11.116;2023-04-25T11:47:29;2.15;;;1.95;;
21741;SDS011;11033;47.490;11.116;2023-04-25T11:49:57;3.60;;;1.40;;
21741;SDS011;11033;47.490;11.116;2023-04-25T11:52:23;1.70;;;1.60;;
21741;SDS011;11033;47.490;11.116;2023-04-25T11:54:48;2.80;;;1.60;;
21741;SDS011;11033;47.490;11.116;2023-04-25T11:57:13;2.80;;;1.40;;
21741;SDS011;11033;47.490;11.116;2023-04-25T11:59:39;2.42;;;1.60;;
21741;SDS011;11033;47.490;11.116;2023-04-25T12:02:04;1.95;;;1.55;;
21741;SDS011;11033;47.490;11.116;2023-04-25T12:04:31;1.50;;;1.40;;
21741;SDS011;11033;47.490;11.116;2023-04-25T12:06:57;1.38;;;1.27;;
21741;SDS011;11033;47.490;11.116;2023-04-25T12:09:29;1.60;;;1.50;;
21741;SDS011;11033;47.490;11.116;2023-04-25T12:11:56;2.85;;;1.98;;
21741;SDS011;11033;47.490;11.116;2023-04-25T12:14:29;2.05;;;1.63;;
21741;SDS011;11033;47.490;11.116;2023-04-25T12:16:58;2.78;;;1.25;;
21741;SDS011;11033;47.490;11.116;2023-04-25T12:19:24;1.73;;;1.00;;
21741;SDS011;11033;47.490;11.116;2023-04-25T12:21:51;2.65;;;1.33;;
21741;SDS011;11033;47.490;11.116;2023-04-25T12:24:18;1.58;;;1.20;;
21741;SDS011;11033;47.490;11.116;2023-04-25T12:26:49;4.57;;;2.25;;
21741;SDS011;11033;47.490;11.116;2023-04-25T12:29:20;1.33;;;1.23;;
21741;SDS011;11033;47.490;11.116;2023-04-25T12:31:50;2.15;;;1.75;;
21741;SDS011;11033;47.490;11.116;2023-04-25T12:34:17;1.70;;;1.60;;
21741;SDS011;11033;47.490;11.116;2023-04-25T12:36:43;1.75;;;1.60;;
21741;SDS011;11033;47.490;11.116;2023-04-25T12:39:13;1.63;;;1.30;;
21741;SDS011;11033;47.490;11.116;2023-04-25T12:41:40;2.17;;;1.17;;
21741;SDS011;11033;47.490;11.116;2023-04-25T12:44:05;1.40;;;1.30;;
21741;SDS011;11033;47.490;11.116;2023-04-25T12:46:31;1.07;;;0.93;;
21741;SDS011;11033;47.490;11.116;2023-04-25T12:48:56;2.17;;;1.05;;
21741;SDS011;11033;47.490;11.116;2023-04-25T12:51:22;0.95;;;0.95;;
21741;SDS011;11033;47.490;11.116;2023-04-25T12:53:49;1.38;;;1.27;;
21741;SDS011;11033;47.490;11.116;2023-04-25T12:56:15;1.98;;;1.23;;
21741;SDS011;11033;47.490;11.116;2023-04-25T12:58:40;4.03;;;1.63;;
21741;SDS011;11033;47.490;11.116;2023-04-25T13:01:07;4.47;;;1.60;;
21741;SDS011;11033;47.490;11.116;2023-04-25T13:03:33;3.08;;;1.83;;
21741;SDS011;11033;47.490;11.116;2023-04-25T13:05:59;1.70;;;1.60;;
21741;SDS011;11033;47.490;11.116;2023-04-25T13:08:24;3.40;;;1.65;;
21741;SDS011;11033;47.490;11.116;2023-04-25T13:10:49;2.65;;;2.10;;
21741;SDS011;11033;47.490;11.116;2023-04-25T13:13:15;1.50;;;1.40;;
21741;SDS011;11033;47.490;11.116;2023-04-25T13:15:41;1.73;;;1.17;;
21741;SDS011;11033;47.490;11.116;2023-04-25T13:18:06;1.10;;;1.00;;
21741;SDS011;11033;47.490;11.116;2023-04-25T13:20:32;0.82;;;0.77;;
21741;SDS011;11033;47.490;11.116;2023-04-25T13:22:58;1.02;;;0.90;;
21741;SDS011;11033;47.490;11.116;2023-04-25T13:25:23;0.80;;;0.80;;
21741;SDS011;11033;47.490;11.116;2023-04-25T13:27:48;1.13;;;0.90;;
21741;SDS011;11033;47.490;11.116;2023-04-25T13:30:14;1.15;;;0.90;;
21741;SDS011;11033;47.490;11.116;2023-04-25T13:32:39;0.82;;;0.75;;
21741;SDS011;11033;47.490;11.116;2023-04-25T13:35:07;0.90;;;0.90;;
21741;SDS011;11033;47.490;11.116;2023-04-25T13:37:34;2.40;;;0.88;;
21741;SDS011;11033;47.490;11.116;2023-04-25T13:40:00;1.67;;;0.70;;
21741;SDS011;11033;47.490;11.116;2023-04-25T13:42:27;1.55;;;0.70;;
21741;SDS011;11033;47.490;11.116;2023-04-25T13:44:53;0.50;;;0.50;;
21741;SDS011;11033;47.490;11.116;2023-04-25T13:47:18;0.80;;;0.80;;
21741;SDS011;11033;47.490;11.116;2023-04-25T13:49:43;0.80;;;0.80;;
21741;SDS011;11033;47.490;11.116;2023-04-25T13:52:09;1.13;;;1.00;;
21741;SDS011;11033;47.490;11.116;2023-04-25T13:54:34;1.02;;;0.93;;
21741;SDS011;11033;47.490;11.116;2023-04-25T13:56:59;1.03;;;0.93;;
21741;SDS011;11033;47.490;11.116;2023-04-25T13:59:25;1.10;;;1.00;;
21741;SDS011;11033;47.490;11.116;2023-04-25T14:01:50;1.17;;;1.08;;
21741;SDS011;11033;47.490;11.116;2023-04-25T14:04:16;0.80;;;0.80;;
21741;SDS011;11033;47.490;11.116;2023-04-25T14:06:41;0.90;;;0.90;;
21741;SDS011;11033;47.490;11.116;2023-04-25T14:09:07;0.80;;;0.80;;
21741;SDS011;11033;47.490;11.116;2023-04-25T14:11:35;1.25;;;1.15;;
21741;SDS011;11033;47.490;11.116;2023-04-25T14:14:01;1.55;;;1.15;;
21741;SDS011;11033;47.490;11.116;2023-04-25T14:16:27;1.58;;;1.48;;
21741;SDS011;11033;47.490;11.116;2023-04-25T14:18:52;0.98;;;0.98;;
21741;SDS011;11033;47.490;11.116;2023-04-25T14:21:19;0.80;;;0.80;;
21741;SDS011;11033;47.490;11.116;2023-04-25T14:23:45;1.08;;;0.90;;
21741;SDS011;11033;47.490;11.116;2023-04-25T14:26:11;0.75;;;0.75;;
21741;SDS011;11033;47.490;11.116;2023-04-25T14:28:37;3.08;;;0.80;;
21741;SDS011;11033;47.490;11.116;2023-04-25T14:31:03;0.77;;;0.77;;
21741;SDS011;11033;47.490;11.116;2023-04-25T14:33:28;3.40;;;0.80;;
21741;SDS011;11033;47.490;11.116;2023-04-25T14:35:54;1.33;;;1.20;;
21741;SDS011;11033;47.490;11.116;2023-04-25T14:38:19;0.88;;;0.88;;
21741;SDS011;11033;47.490;11.116;2023-04-25T14:40:48;1.30;;;1.02;;
21741;SDS011;11033;47.490;11.116;2023-04-25T14:43:13;1.15;;;1.05;;
21741;SDS011;11033;47.490;11.116;2023-04-25T14:45:39;3.30;;;0.75;;